ADDS METAR Data INFO
IDs: Format: Raw Decoded Include TAF

Data at: 0314 UTC 22 Apr 2018

KCKC 220255Z AUTO 00000KT 10SM CLR 01/M11 A3035 RMK AO2
KCKC 220235Z AUTO 00000KT 10SM CLR 01/M10 A3035 RMK AO2
KCKC 220215Z AUTO 00000KT 10SM CLR 03/M10 A3035 RMK AO2
KCKC 220155Z AUTO 00000KT 10SM CLR 04/M11 A3034 RMK AO2
KCKC 220135Z AUTO 00000KT 10SM CLR 06/M11 A3034 RMK AO2
KCKC 220115Z AUTO 00000KT 10SM CLR 07/M12 A3034 RMK AO2
KCKC 220055Z AUTO 00000KT 10SM CLR 07/M13 A3033 RMK AO2
KCKC 220035Z AUTO 18003KT 10SM CLR 08/M12 A3033 RMK AO2
KCKC 220015Z AUTO 18003KT 10SM CLR 09/M12 A3033 RMK AO2
KCKC 212355Z AUTO 18003KT 10SM CLR 09/M11 A3033 RMK AO2
KCKC 212335Z AUTO 17005KT 10SM CLR 09/M11 A3034 RMK AO2
KCKC 212315Z AUTO 19004KT 10SM CLR 10/M11 A3034 RMK AO2
KCKC 212256Z AUTO 17005KT 10SM CLR 11/M11 A3034 RMK AO2
KCKC 212235Z AUTO 17004KT 10SM CLR 11/M11 A3034 RMK AO2
KCKC 212215Z AUTO 18006KT 10SM CLR 11/M11 A3034 RMK AO2
KCKC 212155Z AUTO 19007KT 10SM CLR 11/M11 A3034 RMK AO2
KCKC 212135Z AUTO 18007KT 139V209 10SM CLR 11/M10 A3034 RMK AO2
KCKC 212115Z AUTO 19008G14KT 10SM CLR 11/M09 A3034 RMK AO2
KCKC 212055Z AUTO 18009KT 10SM CLR 11/M09 A3034 RMK AO2
KCKC 212035Z AUTO 19006KT 10SM CLR 11/M09 A3034 RMK AO2
KCKC 212015Z AUTO 19006KT 10SM CLR 11/M09 A3034 RMK AO2
KCKC 211955Z AUTO 18009KT 10SM CLR 11/M08 A3035 RMK AO2
KCKC 211935Z AUTO 17005KT 10SM CLR 11/M07 A3035 RMK AO2
KCKC 211915Z AUTO 19007KT 10SM CLR 11/M07 A3035 RMK AO2
KCKC 211855Z AUTO 19006KT 10SM CLR 11/M07 A3035 RMK AO2
KCKC 211835Z AUTO 18005KT 10SM CLR 11/M07 A3035 RMK AO2
KCKC 211815Z AUTO 18007KT 10SM CLR 11/M07 A3036 RMK AO2
KCKC 211755Z AUTO 18008KT 10SM CLR 11/M07 A3036 RMK AO2
KCKC 211735Z AUTO 20008KT 149V209 10SM CLR 11/M07 A3036 RMK AO2
KCKC 211715Z AUTO 16009KT 10SM CLR 11/M07 A3036 RMK AO2
KCKC 211655Z AUTO 14005KT 10SM CLR 11/M07 A3037 RMK AO2
KCKC 211635Z AUTO 14006KT 10SM CLR 10/M07 A3037 RMK AO2
KCKC 211615Z AUTO 14008KT 10SM CLR 11/M07 A3037 RMK AO2
KCKC 211555Z AUTO 15005KT 10SM CLR 11/M07 A3037 RMK AO2
KCKC 211535Z AUTO 16003KT 10SM CLR 12/M10 A3037 RMK AO2
KCKC 211515Z AUTO 18004KT 10SM CLR 12/M10 A3037 RMK AO2
KCKC 211455Z AUTO 00000KT 10SM CLR 12/M07 A3037 RMK AO2
KCKC 211435Z AUTO 00000KT 10SM CLR 11/M07 A3037 RMK AO2
KCKC 211415Z AUTO 00000KT 10SM CLR 10/M07 A3037 RMK AO2
KCKC 211355Z AUTO 00000KT 10SM CLR 10/M07 A3038 RMK AO2
KCKC 211335Z AUTO 00000KT 10SM CLR 08/M07 A3038 RMK AO2
KCKC 211315Z AUTO 00000KT 10SM CLR 06/M07 A3038 RMK AO2
KCKC 211255Z AUTO 00000KT 10SM CLR 05/M07 A3038 RMK AO2
KCKC 211235Z AUTO 00000KT 10SM CLR 03/M08 A3038 RMK AO2
KCKC 211215Z AUTO 00000KT 10SM CLR M01/M08 A3038 RMK AO2
KCKC 211155Z AUTO 00000KT 10SM CLR M01/M08 A3038 RMK AO2
KCKC 211135Z AUTO 00000KT 10SM CLR M01/M08 A3038 RMK AO2
KCKC 211115Z AUTO 00000KT 10SM CLR M02/M08 A3037 RMK AO2
KCKC 211055Z AUTO 00000KT 10SM CLR 00/M08 A3037 RMK AO2
KCKC 211035Z AUTO 00000KT 10SM CLR 01/M08 A3037 RMK AO2
KCKC 211015Z AUTO 00000KT 10SM CLR 00/M08 A3037 RMK AO2
KCKC 210955Z AUTO 00000KT 10SM CLR 01/M08 A3037 RMK AO2
KCKC 210935Z AUTO 00000KT 10SM CLR M02/M08 A3037 RMK AO2
KCKC 210915Z AUTO 00000KT 10SM CLR M01/M08 A3037 RMK AO2
KCKC 210855Z AUTO 26003KT 10SM CLR M01/M08 A3036 RMK AO2
KCKC 210835Z AUTO 25003KT 10SM CLR 01/M08 A3037 RMK AO2
KCKC 210815Z AUTO 28004KT 10SM CLR M01/M09 A3037 RMK AO2
KCKC 210755Z AUTO 00000KT 10SM CLR M02/M08 A3037 RMK AO2
KCKC 210735Z AUTO 00000KT 10SM CLR M03/M07 A3037 RMK AO2
KCKC 210715Z AUTO 00000KT 10SM CLR M02/M09 A3037 RMK AO2
KCKC 210655Z AUTO 00000KT 10SM CLR 00/M09 A3037 RMK AO2
KCKC 210635Z AUTO 00000KT 10SM CLR 00/M09 A3038 RMK AO2
KCKC 210615Z AUTO 00000KT 10SM CLR M01/M08 A3038 RMK AO2
KCKC 210555Z AUTO 00000KT 10SM CLR M02/M07 A3039 RMK AO2
KCKC 210535Z AUTO 00000KT 10SM CLR M01/M07 A3039 RMK AO2
KCKC 210515Z AUTO 00000KT 10SM CLR 02/M08 A3038 RMK AO2
KCKC 210455Z AUTO 00000KT 10SM CLR 01/M09 A3038 RMK AO2
KCKC 210435Z AUTO 00000KT 10SM CLR 00/M10 A3039 RMK AO2
KCKC 210415Z AUTO 00000KT 10SM CLR M01/M09 A3039 RMK AO2
KCKC 210355Z AUTO 00000KT 10SM CLR M01/M08 A3039 RMK AO2
KCKC 210335Z AUTO 00000KT 10SM CLR 01/M08 A3039 RMK AO2
KCKC 210315Z AUTO 00000KT 10SM CLR 03/M10 A3039 RMK AO2
KCKC 210255Z AUTO 00000KT 10SM CLR 05/M12 A3039 RMK AO2
KCKC 210235Z AUTO 00000KT 10SM CLR 05/M12 A3039 RMK AO2
KCKC 210215Z AUTO 00000KT 10SM CLR 05/M12 A3039 RMK AO2
KCKC 210155Z AUTO 00000KT 10SM CLR 05/M11 A3039 RMK AO2
KCKC 210135Z AUTO 00000KT 10SM CLR 05/M12 A3039 RMK AO2
KCKC 210115Z AUTO 00000KT 10SM CLR 05/M12 A3038 RMK AO2
KCKC 210055Z AUTO 17003KT 10SM CLR 05/M12 A3039 RMK AO2
KCKC 210035Z AUTO 20004KT 10SM CLR 06/M11 A3039 RMK AO2
KCKC 210015Z AUTO 20004KT 10SM CLR 07/M12 A3038 RMK AO2
KCKC 202355Z AUTO 20004KT 10SM CLR 08/M12 A3038 RMK AO2
KCKC 202335Z AUTO 19003KT 10SM CLR 08/M12 A3038 RMK AO2
KCKC 202315Z AUTO 20005KT 10SM CLR 09/M12 A3037 RMK AO2
KCKC 202255Z AUTO 21004KT 10SM CLR 09/M12 A3038 RMK AO2
KCKC 202235Z AUTO 19006KT 10SM CLR 09/M11 A3038 RMK AO2
KCKC 202215Z AUTO 18009KT 10SM CLR 10/M12 A3038 RMK AO2
KCKC 202155Z AUTO 17006KT 10SM CLR 10/M13 A3038 RMK AO2
KCKC 202135Z AUTO 18006KT 10SM CLR 10/M13 A3038 RMK AO2
KCKC 202115Z AUTO 19007KT 10SM CLR 11/M13 A3038 RMK AO2
KCKC 202055Z AUTO 17006KT 10SM CLR 11/M12 A3038 RMK AO2
KCKC 202035Z AUTO 18006KT 10SM CLR 10/M13 A3039 RMK AO2
KCKC 202015Z AUTO 18005KT 10SM CLR 11/M13 A3039 RMK AO2
KCKC 201955Z AUTO 18006KT 10SM CLR 11/M13 A3040 RMK AO2
KCKC 201935Z AUTO 19008KT 149V219 10SM CLR 11/M13 A3041 RMK AO2
KCKC 201915Z AUTO 16006KT 10SM CLR 11/M13 A3041 RMK AO2
KCKC 201855Z AUTO 15007KT 10SM CLR 11/M13 A3041 RMK AO2
KCKC 201835Z AUTO 16006KT 10SM CLR 11/M13 A3041 RMK AO2
KCKC 201815Z AUTO 16007KT 10SM CLR 10/M13 A3041 RMK AO2
KCKC 201756Z AUTO 17005KT 10SM CLR 11/M13 A3041 RMK AO2
KCKC 201735Z AUTO 18006KT 10SM CLR 11/M13 A3041 RMK AO2
KCKC 201715Z AUTO 17006KT 10SM CLR 11/M13 A3041 RMK AO2
KCKC 201655Z AUTO 17005KT 10SM CLR 11/M13 A3041 RMK AO2
KCKC 201635Z AUTO 15007KT 10SM CLR 11/M13 A3042 RMK AO2
KCKC 201615Z AUTO 19003KT 10SM CLR 11/M13 A3042 RMK AO2
KCKC 201555Z AUTO 16003KT 10SM CLR 11/M13 A3042 RMK AO2
KCKC 201535Z AUTO 00000KT 10SM CLR 11/M14 A3042 RMK AO2
KCKC 201515Z AUTO 18003KT 10SM CLR 10/M13 A3042 RMK AO2